Brisbin, PA (16620)

05:40 PM EDT die 29o July, anno 2016 (GMT -0400)
The Garden | | Change Station

Elev 1578 ft 40.79 °N, 78.37 °W | Updated 6 minutes ago

Mostly Cloudy
Plerumque Nubila
85.3 °F
Feels Like 87 °F
N
0.0
Ventus Variabilis Ventus from Inter Austrum et Zephyrum
Gusts 0.0 mph

Hodie
High -- | Low -- °F
--% Chance of Precip.
Yesterday
High -- | Low -- °F
Precip. -- in
Pressio 29.91 in
Visibilitas 10.0 milia passuum
Clouds Nubes Dispersae 4900 ft
Plerumque Nubila 5500 ft
Plerumque Nubila 7500 ft
Index Caloris 87 °F
Frigus in quo Ros apparet 66 °F
Umor 52%
Rainfall 0.01 in
Snow Depth Not available.
6:07 AM 8:31 PM
Waning Crescent, 19% visible
METAR KFIG 292054Z AUTO 05006KT 10SM SCT049 BKN055 BKN075 29/17 A2995 RMK AO2 LTG DSNT NW SLP129 T02940172 56003
Pressio 29.91 in
Visibilitas 10.0 milia passuum
Clouds Nubes Dispersae 4900 ft
Plerumque Nubila 5500 ft
Plerumque Nubila 7500 ft
Index Caloris 87 °F
Frigus in quo Ros apparet 66 °F
Umor 52%
Rainfall 0.01 in
Snow Depth Not available.
6:07 AM 8:31 PM
Waning Crescent, 19% visible
METAR KFIG 292054Z AUTO 05006KT 10SM SCT049 BKN055 BKN075 29/17 A2995 RMK AO2 LTG DSNT NW SLP129 T02940172 56003

10-Day Weather Forecast

Almanac

Astronomy

Jul. 29, 2016 Rise Set
Actual Time
Civil Twilight
Nautical Twilight
Astronomical Twilight
Moon
Length Of Visible Light
Length of Day
Tomorrow will be .
, % of the Moon is Illuminated

Today's Extremes

State Highs State Lows

Community

WunderPhotos

Upload Photos

1,928,423 photos uploaded!

WunderBlog® & News

Nearby

Air Quality

  Air Quality AQ Index Pollutant
Not available.

Snow Depth

Station Depth Elevation

Earthquake Activity

City Distance Mag. Time & Date
Minimum magnitude displayed is 2.5.

Coastal Water Temperatures

Locus Calor

Stations

Nearby Weather Stations

Station Location Temp Frigus Venti Frigus in quo Ros apparet Umor Ventus Precip. Elev Renovata Type
                   

Watches & Warnings

There are currently no watches in effect.